Time;durP1;ratioP1;P1;durP2;ratioP2;P2;SDS_P1;SDS_P2;PMS_P1;PMS_P2;Temp;Humidity;BMP_temperature;BMP_pressure;BME280_temperature;BME280_humidity;BME280_pressure;Samples;Min_cycle;Max_cycle;Signal;HPM_P1;HPM_P2
2021/04/16 00:02:19;;;;;;;1.70;1.53;;;;;;;6.06;64.84;102149.13;4881092;29;20224;-69
2021/04/16 00:04:46;;;;;;;2.47;1.70;;;;;;;6.14;63.25;102148.94;4914297;29;20219;-69
2021/04/16 00:07:15;;;;;;;4.47;1.73;;;;;;;6.11;61.87;102140.44;4896941;29;20295;-68
2021/04/16 00:09:40;;;;;;;2.47;1.60;;;;;;;6.10;61.85;102136.91;4897339;29;20218;-69
2021/04/16 00:12:07;;;;;;;1.70;1.50;;;;;;;6.08;62.20;102139.00;4896342;29;20232;-68
2021/04/16 00:14:32;;;;;;;3.13;1.63;;;;;;;6.03;62.46;102130.69;4896633;29;20872;-69
2021/04/16 00:17:00;;;;;;;1.97;1.67;;;;;;;6.03;63.39;102129.88;4912326;29;20259;-69
2021/04/16 00:19:26;;;;;;;2.27;1.60;;;;;;;6.06;64.22;102122.16;4897127;29;20223;-70
2021/04/16 00:21:54;;;;;;;2.20;1.50;;;;;;;6.01;63.18;102124.66;4911437;29;20224;-69
2021/04/16 00:24:20;;;;;;;2.40;1.40;;;;;;;5.66;63.83;102122.31;4913002;29;20193;-69
2021/04/16 00:26:53;;;;;;;2.90;1.80;;;;;;;5.89;62.22;102123.59;4897161;29;20219;-69
2021/04/16 00:29:21;;;;;;;2.17;1.50;;;;;;;5.93;61.81;102124.84;4880276;29;20219;-69
2021/04/16 00:31:50;;;;;;;3.37;1.60;;;;;;;5.97;61.65;102115.34;4879318;29;20224;-69
2021/04/16 00:34:23;;;;;;;2.60;1.27;;;;;;;5.99;61.58;102123.19;4901327;29;20192;-69
2021/04/16 00:36:49;;;;;;;2.17;1.20;;;;;;;5.96;61.84;102124.44;4896400;29;20678;-69
2021/04/16 00:39:15;;;;;;;1.53;1.40;;;;;;;5.97;62.48;102120.72;4897071;29;20202;-69
2021/04/16 00:41:40;;;;;;;2.23;1.30;;;;;;;5.93;64.46;102119.47;4896023;29;20283;-70
2021/04/16 00:44:06;;;;;;;2.27;1.47;;;;;;;6.04;63.41;102116.16;4880976;29;20206;-70
2021/04/16 00:46:48;;;;;;;1.87;1.50;;;;;;;5.96;65.80;102119.06;4896628;29;20239;-69
2021/04/16 00:49:20;;;;;;;2.60;1.50;;;;;;;5.93;65.88;102116.75;4881214;29;20222;-69
2021/04/16 00:51:48;;;;;;;2.20;1.40;;;;;;;5.84;65.88;102107.25;4872641;29;20243;-69
2021/04/16 00:54:22;;;;;;;1.87;1.40;;;;;;;5.87;65.79;102114.91;4881355;29;20218;-69
2021/04/16 00:56:48;;;;;;;2.43;1.50;;;;;;;5.95;66.91;102120.09;4880595;29;20318;-70
2021/04/16 00:59:17;;;;;;;2.60;1.67;;;;;;;5.98;66.95;102119.69;4896745;29;20208;-69
2021/04/16 01:01:45;;;;;;;2.00;1.53;;;;;;;5.95;68.05;102121.94;4895957;29;20255;-70
2021/04/16 01:04:15;;;;;;;2.27;1.50;;;;;;;6.06;67.03;102119.47;4897395;29;20184;-69
2021/04/16 01:06:41;;;;;;;2.80;1.40;;;;;;;6.00;66.80;102114.91;4912115;29;20229;-69
2021/04/16 01:09:07;;;;;;;2.20;1.40;;;;;;;6.01;64.50;102111.19;4896611;29;20219;-69
2021/04/16 01:11:32;;;;;;;2.67;1.30;;;;;;;5.94;64.74;102115.75;4896189;29;20231;-69
2021/04/16 01:14:00;;;;;;;2.13;1.23;;;;;;;5.98;64.47;102105.38;4896553;29;20196;-69
2021/04/16 01:16:30;;;;;;;2.00;1.20;;;;;;;6.02;64.21;102098.53;4896896;29;20299;-69
2021/04/16 01:18:55;;;;;;;2.83;1.60;;;;;;;6.03;64.75;102098.31;4897327;29;20211;-70
2021/04/16 01:21:45;;;;;;;2.13;1.30;;;;;;;5.94;63.73;102110.34;4904424;29;20220;-69
2021/04/16 01:24:27;;;;;;;1.63;1.40;;;;;;;5.93;64.30;102107.84;4897280;29;20180;-69
2021/04/16 01:26:56;;;;;;;3.40;1.30;;;;;;;6.06;64.29;102097.06;4866227;29;20303;-69
2021/04/16 01:29:22;;;;;;;2.73;1.60;;;;;;;6.05;64.60;102104.34;4865951;29;20702;-69
2021/04/16 01:31:47;;;;;;;1.47;1.30;;;;;;;6.06;64.46;102105.16;4864282;29;20732;-69
2021/04/16 01:34:18;;;;;;;2.73;1.60;;;;;;;5.98;64.50;102095.41;4897175;29;20185;-70
2021/04/16 01:36:44;;;;;;;2.73;1.30;;;;;;;6.01;64.38;102100.41;4896317;29;20290;-69
2021/04/16 01:39:12;;;;;;;2.60;1.83;;;;;;;6.02;65.17;102096.66;4896591;29;20264;-69
2021/04/16 01:41:37;;;;;;;1.60;1.30;;;;;;;5.92;65.95;102096.25;4911354;29;20224;-70
2021/04/16 01:44:16;;;;;;;1.53;1.43;;;;;;;5.93;66.05;102092.50;4865306;29;20199;-69
2021/04/16 01:47:06;;;;;;;2.57;1.50;;;;;;;5.89;66.35;102088.56;4911444;29;20739;-68
2021/04/16 01:49:34;;;;;;;2.10;1.37;;;;;;;5.80;66.82;102095.19;4894891;29;20288;-69
2021/04/16 01:52:04;;;;;;;1.53;1.30;;;;;;;5.77;69.06;102089.41;4895100;29;20295;-68
2021/04/16 01:54:34;;;;;;;1.50;1.40;;;;;;;5.79;69.87;102093.53;4896381;29;20637;-69
2021/04/16 01:57:12;;;;;;;1.60;1.50;;;;;;;5.74;70.31;102091.69;4899612;29;20240;-69
2021/04/16 01:59:38;;;;;;;2.23;1.50;;;;;;;5.71;70.98;102092.88;4883911;29;20208;-70
2021/04/16 02:02:04;;;;;;;2.63;1.53;;;;;;;5.60;73.54;102089.94;4898458;29;20232;-69
2021/04/16 02:04:33;;;;;;;2.10;1.60;;;;;;;5.77;73.45;102090.22;4899651;29;20180;-69
2021/04/16 02:06:59;;;;;;;2.53;1.50;;;;;;;5.66;75.17;102089.97;4914605;29;20234;-69
2021/04/16 02:09:31;;;;;;;2.93;1.50;;;;;;;5.72;73.78;102093.72;4884675;29;20691;-69
2021/04/16 02:11:57;;;;;;;2.40;1.43;;;;;;;5.71;73.29;102092.88;4898249;29;20239;-69
2021/04/16 02:14:24;;;;;;;1.90;1.70;;;;;;;5.64;73.43;102093.91;4915503;29;20184;-69
2021/04/16 02:16:55;;;;;;;1.80;1.60;;;;;;;5.64;73.40;102093.91;4915362;29;20236;-69
2021/04/16 02:19:24;;;;;;;2.77;1.60;;;;;;;5.68;73.24;102100.53;4883952;29;20208;-69
2021/04/16 02:21:52;;;;;;;3.20;1.73;;;;;;;5.81;72.74;102094.16;4897213;29;20221;-69
2021/04/16 02:24:18;;;;;;;1.70;1.60;;;;;;;5.85;72.23;102095.41;4880318;29;20191;-69
2021/04/16 02:26:43;;;;;;;2.63;1.73;;;;;;;5.86;70.91;102097.06;4880120;29;20217;-70
2021/04/16 02:29:10;;;;;;;3.17;2.10;;;;;;;5.65;71.36;102103.66;4897426;29;20193;-71
2021/04/16 02:31:48;;;;;;;3.23;2.23;;;;;;;5.75;70.44;102104.97;4880023;29;20714;-69
2021/04/16 02:34:18;;;;;;;3.73;2.37;;;;;;;5.70;70.68;102102.00;4896444;29;20177;-71
2021/04/16 02:36:44;;;;;;;2.93;1.97;;;;;;;5.69;71.93;102102.19;4864058;29;20316;-70
2021/04/16 02:39:09;;;;;;;2.83;1.87;;;;;;;5.70;71.81;102109.28;4880294;29;20212;-70
2021/04/16 02:41:37;;;;;;;4.30;2.67;;;;;;;5.70;71.35;102096.63;4894810;29;20232;-68
2021/04/16 02:44:04;;;;;;;2.50;1.97;;;;;;;5.37;73.34;102094.91;4895754;29;20546;-68
2021/04/16 02:46:32;;;;;;;3.77;2.07;;;;;;;5.36;74.46;102094.03;4848827;29;20233;-68
2021/04/16 02:49:03;;;;;;;2.63;1.97;;;;;;;5.49;73.28;102102.16;4898169;29;20209;-70
2021/04/16 02:51:31;;;;;;;2.43;1.60;;;;;;;5.48;72.95;102088.91;4913334;29;20255;-69
2021/04/16 02:53:57;;;;;;;2.03;1.60;;;;;;;5.43;72.64;102084.13;4867200;29;20176;-69
2021/04/16 02:56:25;;;;;;;3.40;1.73;;;;;;;5.54;72.23;102085.38;4867437;29;20227;-69
2021/04/16 02:58:51;;;;;;;2.73;2.10;;;;;;;5.41;72.28;102082.69;4883391;29;20199;-69
2021/04/16 03:01:19;;;;;;;2.30;1.83;;;;;;;5.05;75.05;102075.94;4882480;29;20224;-69
2021/04/16 03:03:45;;;;;;;2.23;1.60;;;;;;;4.88;76.97;102076.50;4914732;29;20193;-69
2021/04/16 03:06:10;;;;;;;3.60;1.77;;;;;;;5.22;74.90;102080.78;4914144;29;20231;-69
2021/04/16 03:08:36;;;;;;;2.43;1.70;;;;;;;5.44;73.78;102079.59;4898548;29;20199;-69
2021/04/16 03:11:05;;;;;;;2.00;1.67;;;;;;;5.51;73.83;102075.88;4893181;29;20235;-69
2021/04/16 03:13:33;;;;;;;2.77;1.70;;;;;;;5.33;74.62;102069.41;4895625;29;20201;-69
2021/04/16 03:15:59;;;;;;;3.43;1.83;;;;;;;5.33;75.69;102073.94;4900043;29;20234;-69
2021/04/16 03:18:29;;;;;;;1.80;1.53;;;;;;;5.52;74.16;102069.41;4896150;29;20220;-70
2021/04/16 03:20:55;;;;;;;3.00;1.70;;;;;;;5.54;73.24;102075.44;4897439;29;20228;-70
2021/04/16 03:23:20;;;;;;;1.90;1.70;;;;;;;5.59;72.98;102067.56;4894384;29;20188;-69
2021/04/16 03:25:49;;;;;;;4.53;1.63;;;;;;;5.38;73.64;102070.47;4897699;29;20224;-69
2021/04/16 03:28:15;;;;;;;2.03;1.60;;;;;;;5.32;73.81;102075.81;4910063;29;20196;-69
2021/04/16 03:33:17;;;;;;;1.93;1.60;;;;;;;5.42;73.86;102076.22;5116953;23;20615;-69
2021/04/16 03:35:45;;;;;;;3.00;1.80;;;;;;;5.45;74.50;102075.84;4954547;28;20231;-70
2021/04/16 03:38:13;;;;;;;2.03;1.63;;;;;;;5.38;74.58;102085.75;4971722;28;20214;-69
2021/04/16 03:40:40;;;;;;;4.53;1.60;;;;;;;5.39;74.33;102079.34;4955015;28;20230;-70
2021/04/16 03:43:06;;;;;;;3.00;1.80;;;;;;;5.43;74.31;102069.81;4951252;29;20203;-70
2021/04/16 03:45:32;;;;;;;2.17;1.60;;;;;;;5.39;74.43;102066.72;4951656;28;20214;-70
2021/04/16 03:48:00;;;;;;;2.60;1.70;;;;;;;5.42;74.44;102068.16;4967869;28;20187;-70
2021/04/16 03:50:28;;;;;;;6.47;5.50;;;;;;;5.35;74.52;102070.03;4946256;28;20271;-69
2021/04/16 03:52:56;;;;;;;3.00;1.80;;;;;;;5.36;75.05;102071.66;4936449;29;20241;-70
2021/04/16 03:55:27;;;;;;;2.23;1.47;;;;;;;5.40;75.21;102070.22;4932450;28;20705;-71
2021/04/16 03:57:53;;;;;;;1.63;1.40;;;;;;;5.34;75.07;102068.34;4931160;29;20624;-69
2021/04/16 04:00:24;;;;;;;2.40;1.47;;;;;;;5.16;76.24;102067.28;4959852;28;20218;-70
2021/04/16 04:02:54;;;;;;;2.13;1.50;;;;;;;5.23;76.53;102060.88;4919602;29;20235;-68
2021/04/16 04:05:23;;;;;;;1.77;1.40;;;;;;;5.28;76.02;102063.78;4943916;28;20653;-70
2021/04/16 04:07:51;;;;;;;1.60;1.30;;;;;;;5.24;75.91;102070.63;4924543;29;20271;-70
2021/04/16 04:10:19;;;;;;;2.67;1.60;;;;;;;5.25;76.37;102074.13;4930494;28;20620;-70
2021/04/16 04:12:45;;;;;;;1.77;1.40;;;;;;;5.08;76.96;102076.34;4949214;29;20202;-70
2021/04/16 04:15:13;;;;;;;2.93;1.70;;;;;;;5.06;76.72;102073.03;4948544;28;20653;-70
2021/04/16 04:17:39;;;;;;;3.27;1.90;;;;;;;5.05;77.63;102071.41;4948819;28;20223;-69
2021/04/16 04:20:07;;;;;;;2.87;1.70;;;;;;;5.01;77.69;102075.50;4950546;28;20533;-68
2021/04/16 04:22:32;;;;;;;1.80;1.70;;;;;;;4.99;78.02;102074.06;4929000;29;20772;-70
2021/04/16 04:24:58;;;;;;;1.80;1.60;;;;;;;4.93;77.50;102074.00;4930583;29;20188;-69
2021/04/16 04:27:24;;;;;;;2.40;1.80;;;;;;;4.90;78.88;102079.81;4930430;28;20277;-69
2021/04/16 04:29:49;;;;;;;2.63;1.73;;;;;;;4.76;78.89;102078.94;4931693;29;20234;-69
2021/04/16 04:32:15;;;;;;;2.83;1.70;;;;;;;4.82;80.31;102077.31;4930287;29;20223;-68
2021/04/16 04:34:41;;;;;;;3.80;1.70;;;;;;;4.88;80.33;102073.81;4947693;28;20183;-69
2021/04/16 04:37:10;;;;;;;2.90;1.60;;;;;;;5.03;79.82;102075.31;4931360;29;20228;-70
2021/04/16 04:39:43;;;;;;;2.80;1.70;;;;;;;5.04;79.38;102077.81;4931614;29;20708;-69
2021/04/16 04:42:09;;;;;;;2.20;1.77;;;;;;;4.99;78.89;102077.56;4931836;28;20224;-71
2021/04/16 04:44:36;;;;;;;2.40;1.87;;;;;;;5.01;79.88;102078.19;4916171;29;20180;-69
2021/04/16 04:47:02;;;;;;;3.83;1.70;;;;;;;5.13;79.36;102081.97;4931162;28;20290;-70
2021/04/16 04:49:29;;;;;;;5.73;2.50;;;;;;;5.12;78.56;102083.00;4936907;29;20709;-70
2021/04/16 04:52:16;;;;;;;4.17;2.83;;;;;;;5.18;79.73;102082.22;4964909;28;20235;-70
2021/04/16 04:54:50;;;;;;;2.33;1.70;;;;;;;5.26;78.61;102087.41;4951325;29;20199;-70
2021/04/16 04:57:16;;;;;;;3.57;1.80;;;;;;;5.25;78.69;102080.34;4934378;29;20226;-70
2021/04/16 04:59:42;;;;;;;3.07;1.90;;;;;;;5.24;79.24;102081.41;4934524;29;20226;-70
2021/04/16 05:02:08;;;;;;;3.00;1.90;;;;;;;5.19;79.11;102072.25;4965333;28;20218;-70
2021/04/16 05:04:36;;;;;;;3.07;1.90;;;;;;;5.12;79.00;102069.53;4950604;29;20781;-70
2021/04/16 05:07:02;;;;;;;3.30;2.33;;;;;;;5.31;79.15;102074.16;4966053;28;20219;-70
2021/04/16 05:09:28;;;;;;;2.10;1.90;;;;;;;5.29;78.92;102076.19;4950383;29;20725;-70
2021/04/16 05:11:56;;;;;;;2.90;1.83;;;;;;;5.26;78.80;102071.25;4964907;28;20619;-69
2021/04/16 05:14:22;;;;;;;3.63;1.83;;;;;;;5.16;79.43;102076.16;4950822;29;20197;-70
2021/04/16 05:16:49;;;;;;;3.87;2.20;;;;;;;5.08;80.26;102073.66;4964814;28;20222;-69
2021/04/16 05:19:17;;;;;;;3.30;2.10;;;;;;;4.95;80.17;102075.50;4934382;29;20270;-70
2021/04/16 05:21:49;;;;;;;2.60;1.90;;;;;;;5.01;81.31;102067.41;4947079;28;20605;-69
2021/04/16 05:24:15;;;;;;;2.53;2.00;;;;;;;5.07;80.94;102077.41;4915793;29;20206;-69
2021/04/16 05:26:41;;;;;;;3.50;1.70;;;;;;;5.20;80.81;102072.06;4946697;28;20708;-70
2021/04/16 05:29:06;;;;;;;3.10;1.70;;;;;;;5.23;81.04;102082.41;4916437;29;20690;-69
2021/04/16 05:31:32;;;;;;;3.23;1.70;;;;;;;5.07;80.95;102072.03;4950242;28;20228;-70
2021/04/16 05:33:58;;;;;;;3.30;1.87;;;;;;;5.26;80.29;102081.19;4934135;29;20172;-70
2021/04/16 05:36:24;;;;;;;3.40;1.90;;;;;;;5.18;79.66;102081.34;4934536;29;20294;-71
2021/04/16 05:38:49;;;;;;;2.77;1.80;;;;;;;5.27;80.31;102078.28;4935007;29;20648;-70
2021/04/16 05:41:17;;;;;;;2.03;1.70;;;;;;;5.31;80.62;102090.31;4947134;28;20211;-70
2021/04/16 05:43:43;;;;;;;3.67;1.87;;;;;;;5.36;80.27;102079.75;4933961;29;20184;-70
2021/04/16 05:46:09;;;;;;;2.40;2.03;;;;;;;5.36;80.26;102077.06;4940252;28;20234;-72
2021/04/16 05:48:34;;;;;;;3.27;2.40;;;;;;;5.31;80.89;102084.09;4953445;28;20194;-70
2021/04/16 05:51:03;;;;;;;3.40;2.20;;;;;;;5.43;80.10;102081.44;4951725;28;20231;-69
2021/04/16 05:53:28;;;;;;;2.63;1.87;;;;;;;5.40;80.43;102083.69;4965792;28;20194;-70
2021/04/16 05:55:54;;;;;;;4.23;2.37;;;;;;;5.50;80.47;102089.53;4934023;28;20905;-69
2021/04/16 05:58:20;;;;;;;3.00;1.70;;;;;;;5.50;80.92;102078.75;4934287;29;20211;-69
2021/04/16 06:00:46;;;;;;;4.20;1.90;;;;;;;5.59;80.33;102082.94;4933884;28;20232;-69
2021/04/16 06:03:11;;;;;;;2.67;1.80;;;;;;;5.44;81.28;102090.38;4933394;29;20228;-70
2021/04/16 06:05:37;;;;;;;3.10;2.00;;;;;;;5.47;81.51;102079.97;4935381;28;20243;-70
2021/04/16 06:08:03;;;;;;;4.07;2.07;;;;;;;5.41;82.71;102086.19;4934368;29;20188;-69
2021/04/16 06:10:31;;;;;;;3.47;2.10;;;;;;;5.29;83.60;102076.19;4933763;28;20668;-69
2021/04/16 06:12:57;;;;;;;5.63;2.00;;;;;;;5.46;83.78;102081.03;4917736;29;20693;-70
2021/04/16 06:15:25;;;;;;;2.20;1.80;;;;;;;5.52;83.64;102074.00;4917551;28;20235;-68
2021/04/16 06:17:53;;;;;;;3.80;2.60;;;;;;;5.64;83.69;102081.28;4918113;29;20275;-71
2021/04/16 06:20:22;;;;;;;2.50;2.23;;;;;;;5.52;83.99;102084.78;4958217;28;20226;-69
2021/04/16 06:22:53;;;;;;;5.20;2.07;;;;;;;5.49;84.93;102077.91;4948743;29;20176;-70
2021/04/16 06:25:24;;;;;;;4.00;2.20;;;;;;;5.64;85.38;102077.72;4917878;28;20192;-70
2021/04/16 06:27:54;;;;;;;2.40;2.13;;;;;;;5.82;84.85;102092.28;4950031;28;20175;-70
2021/04/16 06:30:20;;;;;;;2.50;1.97;;;;;;;5.81;84.69;102080.69;4933331;28;20290;-69
2021/04/16 06:32:57;;;;;;;3.47;2.13;;;;;;;5.93;85.06;102080.88;4933145;29;20580;-70
2021/04/16 06:35:23;;;;;;;3.43;2.13;;;;;;;5.92;85.02;102080.06;4948818;28;20238;-69
2021/04/16 06:37:49;;;;;;;3.83;2.70;;;;;;;6.02;84.48;102085.03;4969307;28;20215;-70
2021/04/16 06:40:15;;;;;;;3.90;2.20;;;;;;;5.99;84.23;102074.66;4936467;28;20222;-69
2021/04/16 06:42:40;;;;;;;3.50;2.10;;;;;;;6.02;84.01;102072.38;4935937;29;20187;-69
2021/04/16 06:45:10;;;;;;;3.17;1.90;;;;;;;6.28;83.36;102080.44;4954254;29;20191;-70
2021/04/16 06:47:38;;;;;;;3.60;2.40;;;;;;;6.43;83.20;102079.19;4952875;28;20222;-70
2021/04/16 06:50:05;;;;;;;2.97;2.30;;;;;;;6.55;81.60;102078.31;4952447;29;20214;-70
2021/04/16 06:52:35;;;;;;;3.87;2.23;;;;;;;6.59;80.67;102076.88;4951027;28;20593;-70
2021/04/16 06:55:04;;;;;;;5.03;2.27;;;;;;;6.66;79.59;102071.44;4968574;28;20542;-69
2021/04/16 06:57:58;;;;;;;3.43;2.37;;;;;;;6.77;79.78;102074.31;4968466;28;20257;-69
2021/04/16 07:00:51;;;;;;;3.57;2.60;;;;;;;6.84;77.82;102066.19;4950914;28;20219;-69
2021/04/16 07:03:28;;;;;;;3.03;2.37;;;;;;;7.00;78.12;102067.38;4951543;29;20278;-71
2021/04/16 07:05:56;;;;;;;3.33;2.37;;;;;;;7.06;75.67;102068.38;4951866;28;20276;-70
2021/04/16 07:08:41;;;;;;;3.77;2.50;;;;;;;7.00;72.22;102066.53;4936378;29;20290;-70
2021/04/16 07:11:30;;;;;;;3.73;2.53;;;;;;;7.13;71.17;102064.59;4951901;28;20290;-68
2021/04/16 07:14:00;;;;;;;3.37;2.37;;;;;;;7.34;71.36;102059.72;4930272;29;20663;-70
2021/04/16 07:16:25;;;;;;;3.60;1.83;;;;;;;7.43;68.02;102060.25;4951655;28;20744;-69
2021/04/16 07:18:57;;;;;;;2.47;2.07;;;;;;;7.67;67.56;102061.16;4936126;28;20183;-69
2021/04/16 07:21:22;;;;;;;3.57;2.03;;;;;;;7.68;66.79;102053.84;4951452;29;20250;-69
2021/04/16 07:23:58;;;;;;;3.60;1.87;;;;;;;7.80;66.00;102055.63;4950979;28;20270;-70
2021/04/16 07:26:41;;;;;;;3.40;1.90;;;;;;;7.88;65.33;102049.13;4936170;29;20226;-69
2021/04/16 07:29:09;;;;;;;2.43;1.60;;;;;;;7.95;63.18;102052.59;4967178;28;20210;-70
2021/04/16 07:31:49;;;;;;;3.50;1.97;;;;;;;8.00;63.14;102052.75;4951385;28;20231;-71
2021/04/16 07:34:30;;;;;;;3.73;2.30;;;;;;;8.31;62.92;102058.94;4952039;29;20187;-69
2021/04/16 07:37:10;;;;;;;2.97;1.60;;;;;;;8.30;59.99;102058.13;4951301;28;20281;-70
2021/04/16 07:39:44;;;;;;;2.87;1.50;;;;;;;8.44;57.66;102055.06;4951671;29;20266;-70
2021/04/16 07:42:10;;;;;;;1.40;1.10;;;;;;;8.54;56.47;102054.53;4965986;28;20227;-70
2021/04/16 07:44:43;;;;;;;1.63;0.90;;;;;;;8.78;55.16;102048.22;4936059;29;20194;-70
2021/04/16 07:47:12;;;;;;;1.83;1.10;;;;;;;8.75;54.56;102062.22;4951670;28;20223;-69
2021/04/16 07:49:37;;;;;;;1.20;0.90;;;;;;;8.75;52.94;102063.03;4953900;28;20203;-71
2021/04/16 07:52:26;;;;;;;2.40;1.10;;;;;;;8.71;54.31;102055.59;4952415;28;20234;-71
2021/04/16 07:55:06;;;;;;;1.80;1.20;;;;;;;8.73;53.94;102058.91;4953116;29;20190;-71
2021/04/16 07:57:36;;;;;;;1.30;1.07;;;;;;;8.48;52.68;102060.88;4952667;28;20230;-72
2021/04/16 08:00:09;;;;;;;2.00;1.30;;;;;;;8.57;53.07;102057.63;4936746;29;20226;-71
2021/04/16 08:02:45;;;;;;;1.93;1.30;;;;;;;8.54;52.94;102054.53;4937780;29;20355;-71
2021/04/16 08:05:23;;;;;;;3.03;1.70;;;;;;;8.62;54.09;102056.94;4954261;28;20199;-70
2021/04/16 08:07:49;;;;;;;3.30;1.30;;;;;;;8.70;53.13;102054.78;4939127;29;20637;-70
2021/04/16 08:10:18;;;;;;;3.10;1.20;;;;;;;8.65;52.29;102053.78;4938028;28;20589;-69
2021/04/16 08:12:46;;;;;;;3.23;1.33;;;;;;;8.80;54.33;102048.81;4937695;29;20195;-70
2021/04/16 08:15:24;;;;;;;3.37;0.93;;;;;;;8.93;52.86;102050.28;4970600;28;20665;-70
2021/04/16 08:17:50;;;;;;;1.70;1.17;;;;;;;9.14;51.96;102049.84;4938796;29;20215;-71
2021/04/16 08:20:18;;;;;;;1.73;1.17;;;;;;;9.24;50.97;102047.38;4952936;28;20210;-69
2021/04/16 08:22:44;;;;;;;1.83;1.10;;;;;;;9.18;51.57;102037.47;4952823;28;20199;-70
2021/04/16 08:25:12;;;;;;;1.00;0.90;;;;;;;9.15;52.32;102051.47;4937090;28;20190;-72
2021/04/16 08:27:39;;;;;;;2.27;1.30;;;;;;;9.31;52.45;102054.38;4953186;29;20187;-70
2021/04/16 08:30:07;;;;;;;1.80;1.27;;;;;;;9.35;51.09;102054.75;4951883;28;20210;-69
2021/04/16 08:32:38;;;;;;;1.90;1.40;;;;;;;9.32;50.69;102055.19;4950106;28;20215;-71
2021/04/16 08:35:15;;;;;;;2.03;1.30;;;;;;;9.22;49.69;102060.34;4950042;28;20198;-71
2021/04/16 08:37:46;;;;;;;3.20;1.40;;;;;;;9.02;50.76;102053.53;4950839;28;20246;-71
2021/04/16 08:40:16;;;;;;;2.00;1.20;;;;;;;8.99;51.11;102054.84;4918472;28;20213;-70
2021/04/16 08:42:42;;;;;;;2.57;1.20;;;;;;;9.00;50.03;102053.75;4934214;29;20221;-72
2021/04/16 08:45:13;;;;;;;4.13;1.40;;;;;;;8.99;50.73;102049.41;4950217;28;20190;-70
2021/04/16 08:47:54;;;;;;;2.40;1.40;;;;;;;9.20;50.40;102046.19;4935143;29;20202;-71
2021/04/16 08:50:41;;;;;;;2.43;1.20;;;;;;;9.21;51.07;102045.13;4949824;28;20229;-71
2021/04/16 08:53:07;;;;;;;2.57;1.20;;;;;;;9.22;50.06;102044.91;4934348;29;20237;-70
2021/04/16 08:55:38;;;;;;;4.23;1.77;;;;;;;9.35;49.95;102036.59;4950236;29;20617;-71
2021/04/16 08:58:06;;;;;;;4.30;1.40;;;;;;;9.39;49.42;102039.66;4950769;29;20293;-71
2021/04/16 09:00:49;;;;;;;2.73;1.43;;;;;;;9.64;52.47;102044.69;4934704;28;20253;-70
2021/04/16 09:03:19;;;;;;;1.90;1.30;;;;;;;9.39;49.32;102035.06;4952523;28;20262;-70
2021/04/16 09:06:01;;;;;;;2.13;1.50;;;;;;;9.67;50.95;102044.25;4954931;28;20229;-70
2021/04/16 09:08:40;;;;;;;1.67;1.37;;;;;;;9.66;47.56;102039.84;4940284;29;20179;-71
2021/04/16 09:11:09;;;;;;;1.57;1.20;;;;;;;9.69;48.17;102036.69;4955479;28;20738;-71
2021/04/16 09:13:38;;;;;;;2.53;1.27;;;;;;;9.82;46.91;102031.06;4956692;28;20218;-70
2021/04/16 09:16:15;;;;;;;2.27;1.23;;;;;;;9.80;47.72;102033.19;4957697;28;20226;-72
2021/04/16 09:18:49;;;;;;;2.40;1.20;;;;;;;9.69;46.20;102031.28;4958484;28;20197;-71
2021/04/16 09:21:31;;;;;;;2.30;1.10;;;;;;;9.70;46.15;102032.91;4939862;29;20333;-70
2021/04/16 09:24:09;;;;;;;1.97;1.10;;;;;;;9.66;47.03;102037.16;4934686;29;20575;-71
2021/04/16 09:26:46;;;;;;;1.33;1.07;;;;;;;10.10;46.99;102036.66;4934521;29;20330;-70
2021/04/16 09:29:29;;;;;;;2.47;1.47;;;;;;;9.91;45.90;102026.97;4936213;29;20235;-69
2021/04/16 09:32:03;;;;;;;2.33;1.37;;;;;;;10.16;47.23;102036.53;4949444;28;20343;-71
2021/04/16 09:34:38;;;;;;;1.93;1.20;;;;;;;9.75;44.32;102041.19;4935097;29;20191;-71
2021/04/16 09:37:14;;;;;;;1.67;1.10;;;;;;;10.03;47.44;102033.22;4934247;29;20235;-70
2021/04/16 09:39:58;;;;;;;2.13;1.47;;;;;;;10.22;46.12;102037.47;4950481;29;20692;-72
2021/04/16 09:42:46;;;;;;;1.30;1.20;;;;;;;10.12;45.44;102037.25;4949435;29;20266;-70
2021/04/16 09:45:32;;;;;;;2.47;1.30;;;;;;;10.12;45.30;102043.50;4935571;29;20184;-70
2021/04/16 09:48:02;;;;;;;1.70;1.30;;;;;;;10.11;45.02;102032.91;4936142;29;20196;-71
2021/04/16 09:50:42;;;;;;;1.33;1.10;;;;;;;10.13;44.10;102033.50;4947521;28;20266;-71
2021/04/16 09:53:19;;;;;;;1.40;1.30;;;;;;;10.14;45.10;102035.13;4918260;29;20192;-70
2021/04/16 10:01:02;;;;;;;4.23;1.50;;;;;;;10.38;44.04;102027.56;4935354;29;20239;-70
2021/04/16 10:03:34;;;;;;;1.40;1.30;;;;;;;10.22;44.74;102016.59;4950112;29;20560;-70
2021/04/16 10:06:23;;;;;;;2.57;1.40;;;;;;;10.42;43.90;102023.31;4949935;29;20223;-70
2021/04/16 10:09:11;;;;;;;3.57;1.80;;;;;;;10.21;42.63;102025.78;4950936;29;20202;-70
2021/04/16 10:11:37;;;;;;;3.27;1.20;;;;;;;10.38;41.91;102027.56;4949818;29;20224;-70
2021/04/16 10:14:43;;;;;;;2.67;1.00;;;;;;;10.37;39.97;102018.84;4934500;29;20171;-71
2021/04/16 10:17:08;;;;;;;2.90;1.40;;;;;;;10.43;41.15;102013.25;4878590;29;20292;-71
2021/04/16 10:19:38;;;;;;;2.00;1.33;;;;;;;10.60;41.23;102015.00;4934832;29;20227;-72
2021/04/16 10:22:32;;;;;;;2.67;1.47;;;;;;;10.68;41.23;102009.22;4968521;28;20227;-71
2021/04/16 12:39:21;;;;;;;1.20;0.83;;;;;;;11.54;39.11;101949.72;4933427;28;20215;-71
2021/04/16 12:41:51;;;;;;;1.87;0.70;;;;;;;11.57;38.66;101948.41;4918633;29;20278;-71
2021/04/16 12:44:50;;;;;;;1.30;1.20;;;;;;;12.02;39.52;101945.31;4910936;29;20195;-70
2021/04/16 12:47:18;;;;;;;0.97;0.70;;;;;;;11.99;39.00;101950.44;4916015;28;20218;-69
2021/04/16 12:49:46;;;;;;;0.90;0.70;;;;;;;11.97;39.78;101937.06;4942882;28;20207;-69
2021/04/16 12:52:12;;;;;;;1.87;0.97;;;;;;;12.19;40.68;101942.56;4932971;29;20222;-68
2021/04/16 12:54:41;;;;;;;1.40;0.90;;;;;;;12.49;38.72;101943.78;4949214;29;20188;-68
2021/04/16 12:57:07;;;;;;;1.07;0.90;;;;;;;12.48;39.29;101944.88;4914306;29;20223;-69
2021/04/16 12:59:35;;;;;;;1.67;0.80;;;;;;;12.23;39.97;101925.44;4931877;29;20222;-69
2021/04/16 13:02:04;;;;;;;3.73;1.03;;;;;;;12.33;40.55;101940.03;4932730;29;20230;-68
2021/04/16 13:04:30;;;;;;;1.77;0.90;;;;;;;12.42;42.27;101937.72;4934303;29;20202;-69
2021/04/16 13:06:58;;;;;;;2.83;0.90;;;;;;;12.48;39.56;101931.25;4949882;29;20222;-68
2021/04/16 13:09:24;;;;;;;1.30;0.80;;;;;;;12.28;38.01;101936.41;4947355;29;20207;-68
2021/04/16 13:11:50;;;;;;;2.17;0.80;;;;;;;11.88;39.60;101935.00;4949351;28;20789;-68
2021/04/16 13:14:16;;;;;;;1.60;0.90;;;;;;;11.94;39.21;101939.47;4934242;29;20194;-69
2021/04/16 13:16:42;;;;;;;2.00;0.90;;;;;;;12.40;39.11;101934.41;4918068;28;20240;-70
2021/04/16 13:19:17;;;;;;;0.60;0.60;;;;;;;12.36;37.69;101933.25;4948117;28;20207;-69
2021/04/16 13:21:42;;;;;;;1.57;0.70;;;;;;;12.06;36.99;101932.03;4958231;28;20218;-69
2021/04/16 13:24:11;;;;;;;1.03;0.67;;;;;;;12.43;36.85;101939.34;4962488;28;20195;-69
2021/04/16 13:26:39;;;;;;;1.20;0.60;;;;;;;12.15;35.87;101925.88;4961313;28;20780;-69
2021/04/16 13:29:05;;;;;;;1.63;0.70;;;;;;;12.46;35.88;101927.94;4950257;28;20207;-70
2021/04/16 13:31:32;;;;;;;0.70;0.70;;;;;;;12.45;36.25;101926.28;4965590;28;20249;-70
2021/04/16 13:34:00;;;;;;;0.77;0.77;;;;;;;12.52;34.96;101926.94;4933789;29;20564;-68
2021/04/16 13:36:30;;;;;;;1.17;0.50;;;;;;;12.27;33.69;101928.50;4942029;28;20214;-69
2021/04/16 13:38:56;;;;;;;2.87;0.50;;;;;;;12.66;34.22;101922.75;4940580;28;20191;-70
2021/04/16 13:41:22;;;;;;;1.93;0.60;;;;;;;12.52;32.97;101926.94;4949640;29;20215;-69
2021/04/16 13:43:58;;;;;;;1.70;0.70;;;;;;;12.68;34.20;101919.50;4965528;28;20198;-68
2021/04/16 13:46:30;;;;;;;1.90;0.50;;;;;;;12.50;33.14;101923.63;4934489;29;20305;-69
2021/04/16 13:48:55;;;;;;;1.73;0.50;;;;;;;12.69;34.46;101918.44;4934344;28;20187;-68
2021/04/16 13:51:24;;;;;;;0.53;0.53;;;;;;;12.37;33.79;101919.38;4950670;28;20242;-69
2021/04/16 13:53:51;;;;;;;1.20;0.70;;;;;;;12.00;33.03;101924.88;4936516;29;20195;-69
2021/04/16 13:56:17;;;;;;;0.57;0.57;;;;;;;11.99;32.75;101918.56;4952958;28;20254;-69
2021/04/16 13:58:43;;;;;;;2.20;1.00;;;;;;;12.27;33.87;101912.16;4969689;28;20179;-69
2021/04/16 14:01:09;;;;;;;0.70;0.50;;;;;;;11.85;33.44;101924.66;4968718;28;20786;-71
2021/04/16 14:03:43;;;;;;;1.00;0.60;;;;;;;11.97;34.11;101925.34;4952890;29;20579;-68
2021/04/16 14:06:19;;;;;;;1.63;0.60;;;;;;;12.27;34.63;101923.03;4927675;29;20219;-71
2021/04/16 14:08:59;;;;;;;0.63;0.50;;;;;;;12.31;34.01;101925.84;4951307;29;20186;-70